sensor_id;sensor_type;location;lat;lon;timestamp;temperature;humidity
5808;DHT22;2930;42.678;23.312;2023-04-16T00:00:58;12.30;74.40
5808;DHT22;2930;42.678;23.312;2023-04-16T00:03:31;12.30;74.10
5808;DHT22;2930;42.678;23.312;2023-04-16T00:05:57;12.30;74.30
5808;DHT22;2930;42.678;23.312;2023-04-16T00:08:23;12.30;74.60
5808;DHT22;2930;42.678;23.312;2023-04-16T00:10:50;12.30;74.40
5808;DHT22;2930;42.678;23.312;2023-04-16T00:13:16;12.40;74.50
5808;DHT22;2930;42.678;23.312;2023-04-16T00:15:41;12.40;74.40
5808;DHT22;2930;42.678;23.312;2023-04-16T00:18:07;12.40;74.60
5808;DHT22;2930;42.678;23.312;2023-04-16T00:20:33;12.40;74.50
5808;DHT22;2930;42.678;23.312;2023-04-16T00:22:58;12.40;74.60
5808;DHT22;2930;42.678;23.312;2023-04-16T00:25:24;12.40;74.70
5808;DHT22;2930;42.678;23.312;2023-04-16T00:27:50;12.30;74.80
5808;DHT22;2930;42.678;23.312;2023-04-16T00:30:16;12.20;75.90
5808;DHT22;2930;42.678;23.312;2023-04-16T00:32:41;12.10;76.40
5808;DHT22;2930;42.678;23.312;2023-04-16T00:35:07;12.00;76.20
5808;DHT22;2930;42.678;23.312;2023-04-16T00:37:33;12.00;76.60
5808;DHT22;2930;42.678;23.312;2023-04-16T00:39:59;11.80;76.40
5808;DHT22;2930;42.678;23.312;2023-04-16T00:42:25;11.60;75.20
5808;DHT22;2930;42.678;23.312;2023-04-16T00:44:51;11.40;74.90
5808;DHT22;2930;42.678;23.312;2023-04-16T00:47:18;11.30;75.10
5808;DHT22;2930;42.678;23.312;2023-04-16T00:49:52;11.20;75.10
5808;DHT22;2930;42.678;23.312;2023-04-16T00:52:18;11.20;75.10
5808;DHT22;2930;42.678;23.312;2023-04-16T00:54:43;11.30;74.90
5808;DHT22;2930;42.678;23.312;2023-04-16T00:57:13;11.40;74.10
5808;DHT22;2930;42.678;23.312;2023-04-16T00:59:40;11.30;73.00
5808;DHT22;2930;42.678;23.312;2023-04-16T01:02:05;11.30;72.40
5808;DHT22;2930;42.678;23.312;2023-04-16T01:04:31;11.10;72.00
5808;DHT22;2930;42.678;23.312;2023-04-16T01:06:58;10.90;72.00
5808;DHT22;2930;42.678;23.312;2023-04-16T01:09:24;10.90;71.80
5808;DHT22;2930;42.678;23.312;2023-04-16T01:11:52;10.90;72.00
5808;DHT22;2930;42.678;23.312;2023-04-16T01:14:17;11.00;72.40
5808;DHT22;2930;42.678;23.312;2023-04-16T01:16:43;10.80;71.60
5808;DHT22;2930;42.678;23.312;2023-04-16T01:19:09;10.60;71.70
5808;DHT22;2930;42.678;23.312;2023-04-16T01:21:34;10.70;71.50
5808;DHT22;2930;42.678;23.312;2023-04-16T01:24:03;10.60;71.50
5808;DHT22;2930;42.678;23.312;2023-04-16T01:26:30;10.60;71.20
5808;DHT22;2930;42.678;23.312;2023-04-16T01:28:56;10.50;71.20
5808;DHT22;2930;42.678;23.312;2023-04-16T01:31:21;10.50;71.50
5808;DHT22;2930;42.678;23.312;2023-04-16T01:33:48;10.60;71.10
5808;DHT22;2930;42.678;23.312;2023-04-16T01:36:14;10.70;70.90
5808;DHT22;2930;42.678;23.312;2023-04-16T01:38:40;10.70;70.80
5808;DHT22;2930;42.678;23.312;2023-04-16T01:41:06;10.70;71.00
5808;DHT22;2930;42.678;23.312;2023-04-16T01:43:32;10.60;71.60
5808;DHT22;2930;42.678;23.312;2023-04-16T01:46:10;10.60;72.00
5808;DHT22;2930;42.678;23.312;2023-04-16T01:48:36;10.70;72.10
5808;DHT22;2930;42.678;23.312;2023-04-16T01:51:02;10.80;72.30
5808;DHT22;2930;42.678;23.312;2023-04-16T01:53:29;10.80;72.20
5808;DHT22;2930;42.678;23.312;2023-04-16T01:55:55;10.80;72.10
5808;DHT22;2930;42.678;23.312;2023-04-16T01:58:20;10.80;72.20
5808;DHT22;2930;42.678;23.312;2023-04-16T02:00:46;10.80;72.30
5808;DHT22;2930;42.678;23.312;2023-04-16T02:03:11;10.80;72.40
5808;DHT22;2930;42.678;23.312;2023-04-16T02:05:37;10.80;72.70
5808;DHT22;2930;42.678;23.312;2023-04-16T02:08:03;10.80;72.70
5808;DHT22;2930;42.678;23.312;2023-04-16T02:10:29;10.80;72.80
5808;DHT22;2930;42.678;23.312;2023-04-16T02:12:55;10.80;72.90
5808;DHT22;2930;42.678;23.312;2023-04-16T02:15:20;10.80;72.70
5808;DHT22;2930;42.678;23.312;2023-04-16T02:17:48;10.80;72.70
5808;DHT22;2930;42.678;23.312;2023-04-16T02:20:18;10.80;72.60
5808;DHT22;2930;42.678;23.312;2023-04-16T02:22:44;10.80;72.70
5808;DHT22;2930;42.678;23.312;2023-04-16T02:25:10;10.80;72.80
5808;DHT22;2930;42.678;23.312;2023-04-16T02:27:36;10.80;72.90
5808;DHT22;2930;42.678;23.312;2023-04-16T02:30:01;10.80;73.60
5808;DHT22;2930;42.678;23.312;2023-04-16T02:32:28;10.80;73.90
5808;DHT22;2930;42.678;23.312;2023-04-16T02:34:54;10.70;74.00
5808;DHT22;2930;42.678;23.312;2023-04-16T02:37:21;10.70;74.70
5808;DHT22;2930;42.678;23.312;2023-04-16T02:39:47;10.70;74.70
5808;DHT22;2930;42.678;23.312;2023-04-16T02:42:14;10.80;74.70
5808;DHT22;2930;42.678;23.312;2023-04-16T02:44:41;10.80;74.60
5808;DHT22;2930;42.678;23.312;2023-04-16T02:47:07;10.80;74.80
5808;DHT22;2930;42.678;23.312;2023-04-16T02:49:33;10.70;74.80
5808;DHT22;2930;42.678;23.312;2023-04-16T02:52:02;10.70;74.80
5808;DHT22;2930;42.678;23.312;2023-04-16T02:54:28;10.80;75.00
5808;DHT22;2930;42.678;23.312;2023-04-16T02:56:54;10.70;74.90
5808;DHT22;2930;42.678;23.312;2023-04-16T02:59:20;10.60;74.70
5808;DHT22;2930;42.678;23.312;2023-04-16T03:01:46;10.60;74.70
5808;DHT22;2930;42.678;23.312;2023-04-16T03:04:11;10.60;75.10
5808;DHT22;2930;42.678;23.312;2023-04-16T03:06:37;10.60;74.90
5808;DHT22;2930;42.678;23.312;2023-04-16T03:09:03;10.60;75.10
5808;DHT22;2930;42.678;23.312;2023-04-16T03:11:28;10.50;75.90
5808;DHT22;2930;42.678;23.312;2023-04-16T03:13:54;10.40;75.70
5808;DHT22;2930;42.678;23.312;2023-04-16T03:16:21;10.50;75.30
5808;DHT22;2930;42.678;23.312;2023-04-16T03:18:46;10.50;75.30
5808;DHT22;2930;42.678;23.312;2023-04-16T03:21:12;10.60;75.30
5808;DHT22;2930;42.678;23.312;2023-04-16T03:23:38;10.60;75.50
5808;DHT22;2930;42.678;23.312;2023-04-16T03:26:04;10.60;75.40
5808;DHT22;2930;42.678;23.312;2023-04-16T03:28:29;10.60;75.40
5808;DHT22;2930;42.678;23.312;2023-04-16T03:30:55;10.70;75.40
5808;DHT22;2930;42.678;23.312;2023-04-16T03:33:21;10.70;75.20
5808;DHT22;2930;42.678;23.312;2023-04-16T03:35:56;10.70;75.30
5808;DHT22;2930;42.678;23.312;2023-04-16T03:38:23;10.80;75.20
5808;DHT22;2930;42.678;23.312;2023-04-16T03:40:50;10.80;75.10
5808;DHT22;2930;42.678;23.312;2023-04-16T03:43:16;10.80;75.20
5808;DHT22;2930;42.678;23.312;2023-04-16T03:45:45;10.70;75.20
5808;DHT22;2930;42.678;23.312;2023-04-16T03:48:11;10.70;75.40
5808;DHT22;2930;42.678;23.312;2023-04-16T03:50:37;10.60;76.20
5808;DHT22;2930;42.678;23.312;2023-04-16T03:53:02;10.30;77.50
5808;DHT22;2930;42.678;23.312;2023-04-16T03:55:28;10.10;77.00
5808;DHT22;2930;42.678;23.312;2023-04-16T03:57:54;10.00;77.50
5808;DHT22;2930;42.678;23.312;2023-04-16T04:00:20;10.00;77.40
5808;DHT22;2930;42.678;23.312;2023-04-16T04:02:46;10.00;77.50
5808;DHT22;2930;42.678;23.312;2023-04-16T04:05:11;9.90;77.40
5808;DHT22;2930;42.678;23.312;2023-04-16T04:07:37;9.90;76.80
5808;DHT22;2930;42.678;23.312;2023-04-16T04:10:03;10.00;76.60
5808;DHT22;2930;42.678;23.312;2023-04-16T04:12:28;10.10;76.40
5808;DHT22;2930;42.678;23.312;2023-04-16T04:14:54;10.20;75.70
5808;DHT22;2930;42.678;23.312;2023-04-16T04:17:20;10.30;75.80
5808;DHT22;2930;42.678;23.312;2023-04-16T04:19:45;10.40;75.70
5808;DHT22;2930;42.678;23.312;2023-04-16T04:22:11;10.50;75.20
5808;DHT22;2930;42.678;23.312;2023-04-16T04:24:37;10.60;74.30
5808;DHT22;2930;42.678;23.312;2023-04-16T04:27:02;10.60;74.30
5808;DHT22;2930;42.678;23.312;2023-04-16T04:29:28;10.70;74.50
5808;DHT22;2930;42.678;23.312;2023-04-16T04:31:54;10.80;74.60
5808;DHT22;2930;42.678;23.312;2023-04-16T04:34:20;10.80;74.10
5808;DHT22;2930;42.678;23.312;2023-04-16T04:36:45;10.80;74.10
5808;DHT22;2930;42.678;23.312;2023-04-16T04:39:11;10.80;74.00
5808;DHT22;2930;42.678;23.312;2023-04-16T04:41:37;10.80;74.00
5808;DHT22;2930;42.678;23.312;2023-04-16T04:44:02;10.90;73.90
5808;DHT22;2930;42.678;23.312;2023-04-16T04:46:28;10.90;73.60
5808;DHT22;2930;42.678;23.312;2023-04-16T04:48:53;10.90;73.30
5808;DHT22;2930;42.678;23.312;2023-04-16T04:51:19;10.90;73.10
5808;DHT22;2930;42.678;23.312;2023-04-16T04:53:45;10.90;73.90
5808;DHT22;2930;42.678;23.312;2023-04-16T04:56:11;11.00;74.40
5808;DHT22;2930;42.678;23.312;2023-04-16T04:58:36;11.00;74.40
5808;DHT22;2930;42.678;23.312;2023-04-16T05:01:03;11.00;74.10
5808;DHT22;2930;42.678;23.312;2023-04-16T05:03:30;11.00;74.10
5808;DHT22;2930;42.678;23.312;2023-04-16T05:05:55;11.00;73.60
5808;DHT22;2930;42.678;23.312;2023-04-16T05:08:21;11.00;73.80
5808;DHT22;2930;42.678;23.312;2023-04-16T05:10:47;11.00;73.80
5808;DHT22;2930;42.678;23.312;2023-04-16T05:13:13;11.10;74.30
5808;DHT22;2930;42.678;23.312;2023-04-16T05:15:38;11.20;74.30
5808;DHT22;2930;42.678;23.312;2023-04-16T05:18:04;11.20;74.00
5808;DHT22;2930;42.678;23.312;2023-04-16T05:20:30;11.20;74.10
5808;DHT22;2930;42.678;23.312;2023-04-16T05:22:56;11.30;74.30
5808;DHT22;2930;42.678;23.312;2023-04-16T05:25:22;11.40;74.10
5808;DHT22;2930;42.678;23.312;2023-04-16T05:27:48;11.40;73.80
5808;DHT22;2930;42.678;23.312;2023-04-16T05:30:14;11.40;73.10
5808;DHT22;2930;42.678;23.312;2023-04-16T05:32:40;11.50;72.90
5808;DHT22;2930;42.678;23.312;2023-04-16T05:35:05;11.50;73.10
5808;DHT22;2930;42.678;23.312;2023-04-16T05:37:31;11.60;73.20
5808;DHT22;2930;42.678;23.312;2023-04-16T05:39:57;11.70;72.80
5808;DHT22;2930;42.678;23.312;2023-04-16T05:42:22;11.70;72.80
5808;DHT22;2930;42.678;23.312;2023-04-16T05:44:50;11.80;73.00
5808;DHT22;2930;42.678;23.312;2023-04-16T05:47:15;11.80;72.90
5808;DHT22;2930;42.678;23.312;2023-04-16T05:49:41;11.80;72.80
5808;DHT22;2930;42.678;23.312;2023-04-16T05:52:07;11.90;72.60
5808;DHT22;2930;42.678;23.312;2023-04-16T05:54:33;12.10;72.50
5808;DHT22;2930;42.678;23.312;2023-04-16T05:56:59;12.10;71.80
5808;DHT22;2930;42.678;23.312;2023-04-16T05:59:26;12.10;71.50
5808;DHT22;2930;42.678;23.312;2023-04-16T06:01:52;12.20;72.30
5808;DHT22;2930;42.678;23.312;2023-04-16T06:04:17;12.10;73.00
5808;DHT22;2930;42.678;23.312;2023-04-16T06:06:43;12.20;72.70
5808;DHT22;2930;42.678;23.312;2023-04-16T06:09:09;12.30;72.30
5808;DHT22;2930;42.678;23.312;2023-04-16T06:11:35;12.30;71.50
5808;DHT22;2930;42.678;23.312;2023-04-16T06:14:01;12.40;71.10
5808;DHT22;2930;42.678;23.312;2023-04-16T06:16:26;12.50;70.80
5808;DHT22;2930;42.678;23.312;2023-04-16T06:18:52;12.70;69.80
5808;DHT22;2930;42.678;23.312;2023-04-16T06:21:18;12.70;70.30
5808;DHT22;2930;42.678;23.312;2023-04-16T06:23:43;12.80;70.20
5808;DHT22;2930;42.678;23.312;2023-04-16T06:26:11;12.90;69.90
5808;DHT22;2930;42.678;23.312;2023-04-16T06:28:37;12.90;69.80
5808;DHT22;2930;42.678;23.312;2023-04-16T06:31:03;13.00;69.90
5808;DHT22;2930;42.678;23.312;2023-04-16T06:33:29;13.10;69.90
5808;DHT22;2930;42.678;23.312;2023-04-16T06:35:55;13.20;69.60
5808;DHT22;2930;42.678;23.312;2023-04-16T06:38:21;13.30;69.60
5808;DHT22;2930;42.678;23.312;2023-04-16T06:40:47;13.40;69.30
5808;DHT22;2930;42.678;23.312;2023-04-16T06:43:14;13.60;68.90
5808;DHT22;2930;42.678;23.312;2023-04-16T06:45:40;13.80;68.70
5808;DHT22;2930;42.678;23.312;2023-04-16T06:48:06;13.90;68.10
5808;DHT22;2930;42.678;23.312;2023-04-16T06:50:32;14.00;68.00
5808;DHT22;2930;42.678;23.312;2023-04-16T06:52:57;14.20;67.70
5808;DHT22;2930;42.678;23.312;2023-04-16T06:55:23;14.20;66.80
5808;DHT22;2930;42.678;23.312;2023-04-16T06:57:49;14.30;66.80
5808;DHT22;2930;42.678;23.312;2023-04-16T07:00:15;14.40;66.70
5808;DHT22;2930;42.678;23.312;2023-04-16T07:02:40;14.50;66.70
5808;DHT22;2930;42.678;23.312;2023-04-16T07:05:06;14.50;66.60
5808;DHT22;2930;42.678;23.312;2023-04-16T07:07:33;14.60;66.50
5808;DHT22;2930;42.678;23.312;2023-04-16T07:09:59;14.60;66.20
5808;DHT22;2930;42.678;23.312;2023-04-16T07:12:24;14.70;66.00
5808;DHT22;2930;42.678;23.312;2023-04-16T07:14:51;14.70;66.40
5808;DHT22;2930;42.678;23.312;2023-04-16T07:17:17;14.70;66.50
5808;DHT22;2930;42.678;23.312;2023-04-16T07:19:43;14.70;66.70
5808;DHT22;2930;42.678;23.312;2023-04-16T07:22:09;14.70;66.90
5808;DHT22;2930;42.678;23.312;2023-04-16T07:24:35;14.60;67.00
5808;DHT22;2930;42.678;23.312;2023-04-16T07:27:01;14.60;67.00
5808;DHT22;2930;42.678;23.312;2023-04-16T07:29:27;14.50;67.80
5808;DHT22;2930;42.678;23.312;2023-04-16T07:31:53;14.50;67.80
5808;DHT22;2930;42.678;23.312;2023-04-16T07:34:19;14.50;67.80
5808;DHT22;2930;42.678;23.312;2023-04-16T07:36:45;14.60;67.70
5808;DHT22;2930;42.678;23.312;2023-04-16T07:39:11;14.60;67.30
5808;DHT22;2930;42.678;23.312;2023-04-16T07:41:37;14.70;67.60
5808;DHT22;2930;42.678;23.312;2023-04-16T07:44:05;14.90;67.00
5808;DHT22;2930;42.678;23.312;2023-04-16T07:46:30;14.90;67.30
5808;DHT22;2930;42.678;23.312;2023-04-16T07:48:56;15.00;66.90
5808;DHT22;2930;42.678;23.312;2023-04-16T07:51:23;15.10;66.60
5808;DHT22;2930;42.678;23.312;2023-04-16T07:53:48;15.20;66.40
5808;DHT22;2930;42.678;23.312;2023-04-16T07:56:14;15.30;66.30
5808;DHT22;2930;42.678;23.312;2023-04-16T07:58:40;15.40;66.50
5808;DHT22;2930;42.678;23.312;2023-04-16T08:01:05;15.50;66.30
5808;DHT22;2930;42.678;23.312;2023-04-16T08:03:31;15.70;66.10
5808;DHT22;2930;42.678;23.312;2023-04-16T08:05:57;15.80;65.80
5808;DHT22;2930;42.678;23.312;2023-04-16T08:08:23;15.90;65.60
5808;DHT22;2930;42.678;23.312;2023-04-16T08:10:48;16.00;65.50
5808;DHT22;2930;42.678;23.312;2023-04-16T08:13:14;16.20;65.70
5808;DHT22;2930;42.678;23.312;2023-04-16T08:15:40;16.40;66.30
5808;DHT22;2930;42.678;23.312;2023-04-16T08:18:06;16.60;65.00
5808;DHT22;2930;42.678;23.312;2023-04-16T08:20:37;16.60;64.80
5808;DHT22;2930;42.678;23.312;2023-04-16T08:23:03;16.80;65.20
5808;DHT22;2930;42.678;23.312;2023-04-16T08:25:29;16.90;65.00
5808;DHT22;2930;42.678;23.312;2023-04-16T08:27:54;17.10;64.10
5808;DHT22;2930;42.678;23.312;2023-04-16T08:30:20;17.20;64.00
5808;DHT22;2930;42.678;23.312;2023-04-16T08:32:46;17.20;62.90
5808;DHT22;2930;42.678;23.312;2023-04-16T08:35:12;17.40;62.90
5808;DHT22;2930;42.678;23.312;2023-04-16T08:37:37;17.30;62.80
5808;DHT22;2930;42.678;23.312;2023-04-16T08:40:03;17.30;62.80
5808;DHT22;2930;42.678;23.312;2023-04-16T08:42:32;17.30;62.80
5808;DHT22;2930;42.678;23.312;2023-04-16T08:45:16;17.50;62.70
5808;DHT22;2930;42.678;23.312;2023-04-16T08:47:50;17.80;62.00
5808;DHT22;2930;42.678;23.312;2023-04-16T08:50:26;17.90;61.60
5808;DHT22;2930;42.678;23.312;2023-04-16T08:53:03;18.00;61.00
5808;DHT22;2930;42.678;23.312;2023-04-16T08:55:38;18.10;61.30
5808;DHT22;2930;42.678;23.312;2023-04-16T09:00:40;18.20;60.80
5808;DHT22;2930;42.678;23.312;2023-04-16T09:03:08;18.30;60.90
5808;DHT22;2930;42.678;23.312;2023-04-16T09:05:34;18.50;61.00
5808;DHT22;2930;42.678;23.312;2023-04-16T09:08:00;18.60;60.70
5808;DHT22;2930;42.678;23.312;2023-04-16T09:10:26;18.60;59.80
5808;DHT22;2930;42.678;23.312;2023-04-16T09:12:54;18.70;59.70
5808;DHT22;2930;42.678;23.312;2023-04-16T09:15:21;18.80;59.90
5808;DHT22;2930;42.678;23.312;2023-04-16T09:17:47;18.90;59.90
5808;DHT22;2930;42.678;23.312;2023-04-16T09:20:14;19.10;60.20
5808;DHT22;2930;42.678;23.312;2023-04-16T09:22:40;19.30;59.50
5808;DHT22;2930;42.678;23.312;2023-04-16T09:25:08;19.60;58.80
5808;DHT22;2930;42.678;23.312;2023-04-16T09:27:35;20.20;57.90
5808;DHT22;2930;42.678;23.312;2023-04-16T09:32:46;21.70;55.30
5808;DHT22;2930;42.678;23.312;2023-04-16T09:35:11;22.30;53.90
5808;DHT22;2930;42.678;23.312;2023-04-16T09:37:38;22.60;53.90
5808;DHT22;2930;42.678;23.312;2023-04-16T09:40:05;22.90;53.90
5808;DHT22;2930;42.678;23.312;2023-04-16T09:42:37;23.20;53.30
5808;DHT22;2930;42.678;23.312;2023-04-16T09:45:03;23.40;52.80
5808;DHT22;2930;42.678;23.312;2023-04-16T09:47:42;23.60;53.00
5808;DHT22;2930;42.678;23.312;2023-04-16T09:50:13;23.50;52.40
5808;DHT22;2930;42.678;23.312;2023-04-16T09:52:39;23.60;53.40
5808;DHT22;2930;42.678;23.312;2023-04-16T09:55:07;23.90;51.60
5808;DHT22;2930;42.678;23.312;2023-04-16T09:57:36;23.70;51.50
5808;DHT22;2930;42.678;23.312;2023-04-16T10:00:06;23.30;52.30
5808;DHT22;2930;42.678;23.312;2023-04-16T10:02:33;22.80;52.40
5808;DHT22;2930;42.678;23.312;2023-04-16T10:05:01;22.20;53.60
5808;DHT22;2930;42.678;23.312;2023-04-16T10:07:35;21.80;54.90
5808;DHT22;2930;42.678;23.312;2023-04-16T10:10:02;21.40;55.40
5808;DHT22;2930;42.678;23.312;2023-04-16T10:12:29;21.10;55.60
5808;DHT22;2930;42.678;23.312;2023-04-16T10:14:55;20.90;56.00
5808;DHT22;2930;42.678;23.312;2023-04-16T10:17:20;20.80;56.30
5808;DHT22;2930;42.678;23.312;2023-04-16T10:19:46;20.80;56.30
5808;DHT22;2930;42.678;23.312;2023-04-16T10:22:12;20.90;56.40
5808;DHT22;2930;42.678;23.312;2023-04-16T10:24:40;21.00;56.70
5808;DHT22;2930;42.678;23.312;2023-04-16T10:27:06;21.20;56.30
5808;DHT22;2930;42.678;23.312;2023-04-16T10:29:32;21.40;55.60
5808;DHT22;2930;42.678;23.312;2023-04-16T10:31:58;21.60;55.70
5808;DHT22;2930;42.678;23.312;2023-04-16T10:34:26;21.60;55.40
5808;DHT22;2930;42.678;23.312;2023-04-16T10:36:53;21.70;54.80
5808;DHT22;2930;42.678;23.312;2023-04-16T10:39:21;21.80;54.40
5808;DHT22;2930;42.678;23.312;2023-04-16T10:41:49;21.80;54.40
5808;DHT22;2930;42.678;23.312;2023-04-16T10:44:18;22.00;53.80
5808;DHT22;2930;42.678;23.312;2023-04-16T10:46:46;22.50;54.00
5808;DHT22;2930;42.678;23.312;2023-04-16T10:49:18;23.30;53.00
5808;DHT22;2930;42.678;23.312;2023-04-16T10:51:55;24.30;51.30
5808;DHT22;2930;42.678;23.312;2023-04-16T10:54:29;25.10;49.90
5808;DHT22;2930;42.678;23.312;2023-04-16T10:56:57;25.70;47.50
5808;DHT22;2930;42.678;23.312;2023-04-16T10:59:23;26.10;47.80
5808;DHT22;2930;42.678;23.312;2023-04-16T11:01:52;26.20;46.30
5808;DHT22;2930;42.678;23.312;2023-04-16T11:09:50;25.00;48.30
5808;DHT22;2930;42.678;23.312;2023-04-16T11:17:14;25.50;48.40
5808;DHT22;2930;42.678;23.312;2023-04-16T11:19:41;26.00;48.70
5808;DHT22;2930;42.678;23.312;2023-04-16T11:22:11;26.60;48.10
5808;DHT22;2930;42.678;23.312;2023-04-16T11:24:37;27.20;47.80
5808;DHT22;2930;42.678;23.312;2023-04-16T11:27:06;27.40;47.30
5808;DHT22;2930;42.678;23.312;2023-04-16T11:29:31;27.10;46.30
5808;DHT22;2930;42.678;23.312;2023-04-16T11:31:57;26.50;47.80
5808;DHT22;2930;42.678;23.312;2023-04-16T11:34:24;25.50;48.30
5808;DHT22;2930;42.678;23.312;2023-04-16T11:36:51;24.60;49.00
5808;DHT22;2930;42.678;23.312;2023-04-16T11:39:17;23.60;50.40
5808;DHT22;2930;42.678;23.312;2023-04-16T11:41:48;23.10;51.70
5808;DHT22;2930;42.678;23.312;2023-04-16T11:44:25;22.70;52.60
5808;DHT22;2930;42.678;23.312;2023-04-16T11:46:52;22.50;53.20
5808;DHT22;2930;42.678;23.312;2023-04-16T11:49:28;22.50;53.50
5808;DHT22;2930;42.678;23.312;2023-04-16T11:51:54;22.30;52.80
5808;DHT22;2930;42.678;23.312;2023-04-16T11:54:21;22.20;53.50
5808;DHT22;2930;42.678;23.312;2023-04-16T11:56:48;22.10;53.20
5808;DHT22;2930;42.678;23.312;2023-04-16T11:59:17;21.90;53.30
5808;DHT22;2930;42.678;23.312;2023-04-16T12:01:51;21.80;54.00
5808;DHT22;2930;42.678;23.312;2023-04-16T12:04:24;21.80;54.30
5808;DHT22;2930;42.678;23.312;2023-04-16T12:07:06;22.00;53.80
5808;DHT22;2930;42.678;23.312;2023-04-16T12:09:32;22.30;53.00
5808;DHT22;2930;42.678;23.312;2023-04-16T12:11:59;22.50;53.40
5808;DHT22;2930;42.678;23.312;2023-04-16T12:14:26;22.80;52.50
5808;DHT22;2930;42.678;23.312;2023-04-16T12:16:51;23.10;52.50
5808;DHT22;2930;42.678;23.312;2023-04-16T12:19:17;23.40;52.30
5808;DHT22;2930;42.678;23.312;2023-04-16T12:21:46;23.60;51.30
5808;DHT22;2930;42.678;23.312;2023-04-16T12:24:14;23.90;51.60
5808;DHT22;2930;42.678;23.312;2023-04-16T12:26:44;24.30;50.90
5808;DHT22;2930;42.678;23.312;2023-04-16T12:29:25;24.70;50.60
5808;DHT22;2930;42.678;23.312;2023-04-16T12:31:58;24.90;50.10
5808;DHT22;2930;42.678;23.312;2023-04-16T12:34:24;24.80;50.00
5808;DHT22;2930;42.678;23.312;2023-04-16T12:37:06;24.40;50.40
5808;DHT22;2930;42.678;23.312;2023-04-16T12:39:33;24.20;50.70
5808;DHT22;2930;42.678;23.312;2023-04-16T12:41:59;23.70;50.70
5808;DHT22;2930;42.678;23.312;2023-04-16T12:44:25;22.90;52.20
5808;DHT22;2930;42.678;23.312;2023-04-16T12:46:52;22.10;52.80
5808;DHT22;2930;42.678;23.312;2023-04-16T12:49:17;21.50;54.10
5808;DHT22;2930;42.678;23.312;2023-04-16T12:51:45;20.90;55.00
5808;DHT22;2930;42.678;23.312;2023-04-16T12:54:11;20.00;56.80
5808;DHT22;2930;42.678;23.312;2023-04-16T12:56:37;19.30;57.80
5808;DHT22;2930;42.678;23.312;2023-04-16T12:59:02;19.20;58.70
5808;DHT22;2930;42.678;23.312;2023-04-16T13:01:28;19.10;58.80
5808;DHT22;2930;42.678;23.312;2023-04-16T13:03:54;18.90;59.30
5808;DHT22;2930;42.678;23.312;2023-04-16T13:06:20;18.80;60.60
5808;DHT22;2930;42.678;23.312;2023-04-16T13:08:46;18.60;62.10
5808;DHT22;2930;42.678;23.312;2023-04-16T13:11:12;18.20;61.90
5808;DHT22;2930;42.678;23.312;2023-04-16T13:13:38;17.90;62.70
5808;DHT22;2930;42.678;23.312;2023-04-16T13:16:04;17.80;62.10
5808;DHT22;2930;42.678;23.312;2023-04-16T13:18:32;17.90;62.90
5808;DHT22;2930;42.678;23.312;2023-04-16T13:20:58;17.80;62.20
5808;DHT22;2930;42.678;23.312;2023-04-16T13:23:24;17.50;63.80
5808;DHT22;2930;42.678;23.312;2023-04-16T13:25:50;17.30;64.40
5808;DHT22;2930;42.678;23.312;2023-04-16T13:28:15;17.00;64.70
5808;DHT22;2930;42.678;23.312;2023-04-16T13:30:41;16.70;65.30
5808;DHT22;2930;42.678;23.312;2023-04-16T13:33:07;16.60;65.80
5808;DHT22;2930;42.678;23.312;2023-04-16T13:35:34;16.60;66.80
5808;DHT22;2930;42.678;23.312;2023-04-16T13:38:00;16.40;68.30
5808;DHT22;2930;42.678;23.312;2023-04-16T13:40:25;16.30;68.90
5808;DHT22;2930;42.678;23.312;2023-04-16T13:42:51;16.10;69.20
5808;DHT22;2930;42.678;23.312;2023-04-16T13:45:17;16.00;69.20
5808;DHT22;2930;42.678;23.312;2023-04-16T13:47:44;16.00;68.60
5808;DHT22;2930;42.678;23.312;2023-04-16T13:50:10;15.70;68.80
5808;DHT22;2930;42.678;23.312;2023-04-16T13:52:36;15.60;68.40
5808;DHT22;2930;42.678;23.312;2023-04-16T13:55:02;15.70;68.40
5808;DHT22;2930;42.678;23.312;2023-04-16T13:57:28;15.70;68.70
5808;DHT22;2930;42.678;23.312;2023-04-16T13:59:54;15.80;68.90
5808;DHT22;2930;42.678;23.312;2023-04-16T14:02:21;15.90;69.20
5808;DHT22;2930;42.678;23.312;2023-04-16T14:04:47;16.00;68.60
5808;DHT22;2930;42.678;23.312;2023-04-16T14:07:13;15.90;69.20
5808;DHT22;2930;42.678;23.312;2023-04-16T14:09:39;15.70;71.10
5808;DHT22;2930;42.678;23.312;2023-04-16T14:12:06;15.40;72.50
5808;DHT22;2930;42.678;23.312;2023-04-16T14:14:31;15.30;73.40
5808;DHT22;2930;42.678;23.312;2023-04-16T14:16:58;15.10;73.90
5808;DHT22;2930;42.678;23.312;2023-04-16T14:19:24;15.00;74.70
5808;DHT22;2930;42.678;23.312;2023-04-16T14:21:49;14.90;75.30
5808;DHT22;2930;42.678;23.312;2023-04-16T14:24:15;14.70;74.90
5808;DHT22;2930;42.678;23.312;2023-04-16T14:26:42;14.90;74.70
5808;DHT22;2930;42.678;23.312;2023-04-16T14:29:08;15.00;73.90
5808;DHT22;2930;42.678;23.312;2023-04-16T14:31:34;15.20;72.90
5808;DHT22;2930;42.678;23.312;2023-04-16T14:34:00;15.30;71.70
5808;DHT22;2930;42.678;23.312;2023-04-16T14:36:26;15.40;69.90
5808;DHT22;2930;42.678;23.312;2023-04-16T14:38:52;15.50;69.40
5808;DHT22;2930;42.678;23.312;2023-04-16T14:41:18;15.60;69.70
5808;DHT22;2930;42.678;23.312;2023-04-16T14:43:44;15.80;70.30
5808;DHT22;2930;42.678;23.312;2023-04-16T14:46:09;15.90;71.20
5808;DHT22;2930;42.678;23.312;2023-04-16T14:48:35;16.00;71.90
5808;DHT22;2930;42.678;23.312;2023-04-16T14:51:01;16.00;71.60
5808;DHT22;2930;42.678;23.312;2023-04-16T14:53:27;16.00;71.70
5808;DHT22;2930;42.678;23.312;2023-04-16T14:55:53;16.00;71.70
5808;DHT22;2930;42.678;23.312;2023-04-16T14:58:22;16.10;72.00
5808;DHT22;2930;42.678;23.312;2023-04-16T15:00:48;16.10;72.00
5808;DHT22;2930;42.678;23.312;2023-04-16T15:03:13;16.00;72.80
5808;DHT22;2930;42.678;23.312;2023-04-16T15:05:40;16.00;72.70
5808;DHT22;2930;42.678;23.312;2023-04-16T15:08:06;15.90;72.90
5808;DHT22;2930;42.678;23.312;2023-04-16T15:10:31;16.00;73.40
5808;DHT22;2930;42.678;23.312;2023-04-16T15:12:57;15.90;74.10
5808;DHT22;2930;42.678;23.312;2023-04-16T15:15:23;15.90;74.60
5808;DHT22;2930;42.678;23.312;2023-04-16T15:17:49;15.90;75.40
5808;DHT22;2930;42.678;23.312;2023-04-16T15:20:16;15.80;76.30
5808;DHT22;2930;42.678;23.312;2023-04-16T15:22:43;15.70;75.90
5808;DHT22;2930;42.678;23.312;2023-04-16T15:25:10;15.80;76.80
5808;DHT22;2930;42.678;23.312;2023-04-16T15:27:37;15.70;76.40
5808;DHT22;2930;42.678;23.312;2023-04-16T15:30:03;15.70;77.40
5808;DHT22;2930;42.678;23.312;2023-04-16T15:32:30;15.60;77.00
5808;DHT22;2930;42.678;23.312;2023-04-16T15:34:55;15.60;77.30
5808;DHT22;2930;42.678;23.312;2023-04-16T15:37:21;15.50;77.60
5808;DHT22;2930;42.678;23.312;2023-04-16T15:39:46;15.50;77.70
5808;DHT22;2930;42.678;23.312;2023-04-16T15:42:12;15.30;79.00
5808;DHT22;2930;42.678;23.312;2023-04-16T15:44:38;15.20;78.50
5808;DHT22;2930;42.678;23.312;2023-04-16T15:47:03;15.20;78.70
5808;DHT22;2930;42.678;23.312;2023-04-16T15:49:30;15.20;78.50
5808;DHT22;2930;42.678;23.312;2023-04-16T15:51:56;15.20;77.90
5808;DHT22;2930;42.678;23.312;2023-04-16T15:54:22;15.10;78.30
5808;DHT22;2930;42.678;23.312;2023-04-16T15:56:48;15.10;78.00
5808;DHT22;2930;42.678;23.312;2023-04-16T15:59:14;15.10;78.50